Terminal Aerodrome Forecast
Issued by NWS Bismarck, ND

Home | Current Version | Previous Version | Graphics & Text | Print | Product List | Glossary On
Versions: 1 2 3 4 5 6 7 8 9 10 11 12 13 14 15 16 17 18 19 20 21 22 23
000
FTUS43 KBIS 282226 AAB
TAFISN
TAF AMD
KISN 282226Z 2822/2918 25008KT 5SM FU SCT250
      TEMPO 2823/2903 3SM FU SCT030
     FM290500 18005KT 5SM FU SCT250=

USA.gov is the U.S. government's official web portal to all federal, state and local government web resources and services.